sensor_id;sensor_type;location;lat;lon;timestamp;P1;durP1;ratioP1;P2;durP2;ratioP2
54454;SDS011;40364;52.270;10.546;2023-03-01T00:01:53;21.17;;;7.57;;
54454;SDS011;40364;52.270;10.546;2023-03-01T00:04:20;18.63;;;6.53;;
54454;SDS011;40364;52.270;10.546;2023-03-01T00:06:47;20.50;;;7.65;;
54454;SDS011;40364;52.270;10.546;2023-03-01T00:09:13;14.93;;;6.78;;
54454;SDS011;40364;52.270;10.546;2023-03-01T00:11:41;12.98;;;6.97;;
54454;SDS011;40364;52.270;10.546;2023-03-01T00:14:10;13.38;;;6.65;;
54454;SDS011;40364;52.270;10.546;2023-03-01T00:16:37;19.65;;;6.97;;
54454;SDS011;40364;52.270;10.546;2023-03-01T00:19:04;15.50;;;7.25;;
54454;SDS011;40364;52.270;10.546;2023-03-01T00:21:33;16.63;;;7.55;;
54454;SDS011;40364;52.270;10.546;2023-03-01T00:24:00;13.38;;;6.53;;
54454;SDS011;40364;52.270;10.546;2023-03-01T00:26:27;17.38;;;7.32;;
54454;SDS011;40364;52.270;10.546;2023-03-01T00:28:54;11.65;;;6.40;;
54454;SDS011;40364;52.270;10.546;2023-03-01T00:31:23;16.02;;;6.13;;
54454;SDS011;40364;52.270;10.546;2023-03-01T00:33:52;16.27;;;7.53;;
54454;SDS011;40364;52.270;10.546;2023-03-01T00:36:18;15.07;;;6.32;;
54454;SDS011;40364;52.270;10.546;2023-03-01T00:38:47;18.60;;;7.10;;
54454;SDS011;40364;52.270;10.546;2023-03-01T00:41:14;14.48;;;6.30;;
54454;SDS011;40364;52.270;10.546;2023-03-01T00:43:41;11.38;;;6.03;;
54454;SDS011;40364;52.270;10.546;2023-03-01T00:46:08;16.88;;;6.80;;
54454;SDS011;40364;52.270;10.546;2023-03-01T00:48:35;10.70;;;5.88;;
54454;SDS011;40364;52.270;10.546;2023-03-01T00:51:05;13.50;;;6.40;;
54454;SDS011;40364;52.270;10.546;2023-03-01T00:53:32;19.05;;;7.55;;
54454;SDS011;40364;52.270;10.546;2023-03-01T00:56:01;17.05;;;7.72;;
54454;SDS011;40364;52.270;10.546;2023-03-01T00:58:27;19.05;;;6.50;;
54454;SDS011;40364;52.270;10.546;2023-03-01T01:00:54;13.60;;;6.43;;
54454;SDS011;40364;52.270;10.546;2023-03-01T01:03:21;17.20;;;6.13;;
54454;SDS011;40364;52.270;10.546;2023-03-01T01:05:49;12.93;;;6.20;;
54454;SDS011;40364;52.270;10.546;2023-03-01T01:08:16;14.38;;;6.30;;
54454;SDS011;40364;52.270;10.546;2023-03-01T01:10:43;18.13;;;6.78;;
54454;SDS011;40364;52.270;10.546;2023-03-01T01:13:10;18.90;;;7.03;;
54454;SDS011;40364;52.270;10.546;2023-03-01T01:15:37;14.10;;;6.82;;
54454;SDS011;40364;52.270;10.546;2023-03-01T01:18:03;15.68;;;6.47;;
54454;SDS011;40364;52.270;10.546;2023-03-01T01:20:30;11.20;;;6.45;;
54454;SDS011;40364;52.270;10.546;2023-03-01T01:22:56;15.45;;;6.78;;
54454;SDS011;40364;52.270;10.546;2023-03-01T01:25:23;12.00;;;6.07;;
54454;SDS011;40364;52.270;10.546;2023-03-01T01:27:50;14.10;;;6.53;;
54454;SDS011;40364;52.270;10.546;2023-03-01T01:30:17;15.15;;;6.88;;
54454;SDS011;40364;52.270;10.546;2023-03-01T01:32:44;14.55;;;5.97;;
54454;SDS011;40364;52.270;10.546;2023-03-01T01:35:10;10.93;;;5.70;;
54454;SDS011;40364;52.270;10.546;2023-03-01T01:37:37;13.07;;;5.80;;
54454;SDS011;40364;52.270;10.546;2023-03-01T01:40:04;11.23;;;6.07;;
54454;SDS011;40364;52.270;10.546;2023-03-01T01:42:31;17.35;;;5.40;;
54454;SDS011;40364;52.270;10.546;2023-03-01T01:47:40;17.67;;;6.25;;
54454;SDS011;40364;52.270;10.546;2023-03-01T01:50:08;14.25;;;7.07;;
54454;SDS011;40364;52.270;10.546;2023-03-01T01:52:37;16.50;;;7.35;;
54454;SDS011;40364;52.270;10.546;2023-03-01T01:55:04;14.50;;;7.07;;
54454;SDS011;40364;52.270;10.546;2023-03-01T01:57:32;14.23;;;7.03;;
54454;SDS011;40364;52.270;10.546;2023-03-01T02:00:00;10.93;;;5.65;;
54454;SDS011;40364;52.270;10.546;2023-03-01T02:02:29;13.25;;;6.43;;
54454;SDS011;40364;52.270;10.546;2023-03-01T02:05:00;13.73;;;7.03;;
54454;SDS011;40364;52.270;10.546;2023-03-01T02:07:28;10.85;;;6.65;;
54454;SDS011;40364;52.270;10.546;2023-03-01T02:09:55;13.52;;;6.00;;
54454;SDS011;40364;52.270;10.546;2023-03-01T02:12:23;15.70;;;6.90;;
54454;SDS011;40364;52.270;10.546;2023-03-01T02:14:50;16.73;;;7.15;;
54454;SDS011;40364;52.270;10.546;2023-03-01T02:17:16;13.30;;;5.90;;
54454;SDS011;40364;52.270;10.546;2023-03-01T02:19:47;18.17;;;6.80;;
54454;SDS011;40364;52.270;10.546;2023-03-01T02:22:20;21.05;;;7.05;;
54454;SDS011;40364;52.270;10.546;2023-03-01T02:24:50;16.75;;;7.25;;
54454;SDS011;40364;52.270;10.546;2023-03-01T02:27:21;14.45;;;6.95;;
54454;SDS011;40364;52.270;10.546;2023-03-01T02:29:52;20.70;;;6.65;;
54454;SDS011;40364;52.270;10.546;2023-03-01T02:32:18;16.65;;;6.63;;
54454;SDS011;40364;52.270;10.546;2023-03-01T02:34:50;16.63;;;6.07;;
54454;SDS011;40364;52.270;10.546;2023-03-01T02:37:16;14.82;;;5.97;;
54454;SDS011;40364;52.270;10.546;2023-03-01T02:39:50;17.92;;;6.88;;
54454;SDS011;40364;52.270;10.546;2023-03-01T02:42:20;16.70;;;6.35;;
54454;SDS011;40364;52.270;10.546;2023-03-01T02:44:48;14.15;;;6.85;;
54454;SDS011;40364;52.270;10.546;2023-03-01T02:47:16;12.18;;;5.40;;
54454;SDS011;40364;52.270;10.546;2023-03-01T02:49:43;17.15;;;6.72;;
54454;SDS011;40364;52.270;10.546;2023-03-01T02:54:51;15.02;;;6.95;;
54454;SDS011;40364;52.270;10.546;2023-03-01T02:57:20;12.38;;;5.88;;
54454;SDS011;40364;52.270;10.546;2023-03-01T02:59:47;15.73;;;6.65;;
54454;SDS011;40364;52.270;10.546;2023-03-01T03:02:22;11.90;;;5.95;;
54454;SDS011;40364;52.270;10.546;2023-03-01T03:05:01;13.57;;;6.07;;
54454;SDS011;40364;52.270;10.546;2023-03-01T03:07:27;12.20;;;5.63;;
54454;SDS011;40364;52.270;10.546;2023-03-01T03:09:54;16.92;;;6.25;;
54454;SDS011;40364;52.270;10.546;2023-03-01T03:12:20;12.90;;;5.35;;
54454;SDS011;40364;52.270;10.546;2023-03-01T03:14:47;13.73;;;6.50;;
54454;SDS011;40364;52.270;10.546;2023-03-01T03:17:14;12.00;;;5.22;;
54454;SDS011;40364;52.270;10.546;2023-03-01T03:19:41;12.65;;;6.50;;
54454;SDS011;40364;52.270;10.546;2023-03-01T03:22:10;16.88;;;6.10;;
54454;SDS011;40364;52.270;10.546;2023-03-01T03:24:37;16.50;;;6.35;;
54454;SDS011;40364;52.270;10.546;2023-03-01T03:27:03;15.93;;;6.25;;
54454;SDS011;40364;52.270;10.546;2023-03-01T03:29:30;16.42;;;6.30;;
54454;SDS011;40364;52.270;10.546;2023-03-01T03:31:57;12.85;;;5.78;;
54454;SDS011;40364;52.270;10.546;2023-03-01T03:34:24;11.75;;;6.00;;
54454;SDS011;40364;52.270;10.546;2023-03-01T03:36:54;9.32;;;5.60;;
54454;SDS011;40364;52.270;10.546;2023-03-01T03:39:24;12.15;;;6.18;;
54454;SDS011;40364;52.270;10.546;2023-03-01T03:41:51;13.75;;;6.65;;
54454;SDS011;40364;52.270;10.546;2023-03-01T03:44:17;10.70;;;4.95;;
54454;SDS011;40364;52.270;10.546;2023-03-01T03:46:44;11.10;;;5.63;;
54454;SDS011;40364;52.270;10.546;2023-03-01T03:49:10;11.63;;;5.53;;
54454;SDS011;40364;52.270;10.546;2023-03-01T03:51:37;10.93;;;5.53;;
54454;SDS011;40364;52.270;10.546;2023-03-01T03:54:04;11.60;;;5.53;;
54454;SDS011;40364;52.270;10.546;2023-03-01T03:56:31;11.75;;;5.25;;
54454;SDS011;40364;52.270;10.546;2023-03-01T03:58:57;11.15;;;4.78;;
54454;SDS011;40364;52.270;10.546;2023-03-01T04:01:24;11.55;;;5.35;;
54454;SDS011;40364;52.270;10.546;2023-03-01T04:03:50;18.30;;;6.07;;
54454;SDS011;40364;52.270;10.546;2023-03-01T04:06:19;14.15;;;5.68;;
54454;SDS011;40364;52.270;10.546;2023-03-01T04:08:45;15.55;;;5.82;;
54454;SDS011;40364;52.270;10.546;2023-03-01T04:11:17;11.90;;;5.47;;
54454;SDS011;40364;52.270;10.546;2023-03-01T04:13:53;12.68;;;5.55;;
54454;SDS011;40364;52.270;10.546;2023-03-01T04:16:20;10.00;;;5.25;;
54454;SDS011;40364;52.270;10.546;2023-03-01T04:18:46;13.68;;;5.68;;
54454;SDS011;40364;52.270;10.546;2023-03-01T04:21:13;10.75;;;5.45;;
54454;SDS011;40364;52.270;10.546;2023-03-01T04:23:40;13.07;;;5.93;;
54454;SDS011;40364;52.270;10.546;2023-03-01T04:26:07;10.45;;;5.40;;
54454;SDS011;40364;52.270;10.546;2023-03-01T04:28:35;11.68;;;5.88;;
54454;SDS011;40364;52.270;10.546;2023-03-01T04:31:02;12.63;;;5.80;;
54454;SDS011;40364;52.270;10.546;2023-03-01T04:33:37;10.20;;;5.03;;
54454;SDS011;40364;52.270;10.546;2023-03-01T04:36:04;13.43;;;5.82;;
54454;SDS011;40364;52.270;10.546;2023-03-01T04:38:34;13.63;;;5.63;;
54454;SDS011;40364;52.270;10.546;2023-03-01T04:41:02;12.05;;;6.35;;
54454;SDS011;40364;52.270;10.546;2023-03-01T04:43:28;12.73;;;5.80;;
54454;SDS011;40364;52.270;10.546;2023-03-01T04:46:01;12.80;;;6.15;;
54454;SDS011;40364;52.270;10.546;2023-03-01T04:48:28;11.93;;;5.85;;
54454;SDS011;40364;52.270;10.546;2023-03-01T04:50:55;14.27;;;5.80;;
54454;SDS011;40364;52.270;10.546;2023-03-01T04:53:21;10.85;;;5.53;;
54454;SDS011;40364;52.270;10.546;2023-03-01T04:55:47;12.20;;;5.72;;
54454;SDS011;40364;52.270;10.546;2023-03-01T04:58:14;10.90;;;5.55;;
54454;SDS011;40364;52.270;10.546;2023-03-01T05:00:40;12.57;;;6.57;;
54454;SDS011;40364;52.270;10.546;2023-03-01T05:03:08;14.18;;;5.95;;
54454;SDS011;40364;52.270;10.546;2023-03-01T05:05:36;12.68;;;6.10;;
54454;SDS011;40364;52.270;10.546;2023-03-01T05:08:04;11.77;;;5.75;;
54454;SDS011;40364;52.270;10.546;2023-03-01T05:10:31;11.15;;;5.25;;
54454;SDS011;40364;52.270;10.546;2023-03-01T05:12:58;11.15;;;5.25;;
54454;SDS011;40364;52.270;10.546;2023-03-01T05:15:26;13.00;;;5.25;;
54454;SDS011;40364;52.270;10.546;2023-03-01T05:17:53;11.43;;;5.32;;
54454;SDS011;40364;52.270;10.546;2023-03-01T05:20:21;9.05;;;5.35;;
54454;SDS011;40364;52.270;10.546;2023-03-01T05:22:49;12.88;;;6.00;;
54454;SDS011;40364;52.270;10.546;2023-03-01T05:25:15;11.85;;;5.82;;
54454;SDS011;40364;52.270;10.546;2023-03-01T05:27:43;12.38;;;6.38;;
54454;SDS011;40364;52.270;10.546;2023-03-01T05:30:09;14.52;;;6.65;;
54454;SDS011;40364;52.270;10.546;2023-03-01T05:32:42;9.88;;;5.13;;
54454;SDS011;40364;52.270;10.546;2023-03-01T05:35:10;11.43;;;5.38;;
54454;SDS011;40364;52.270;10.546;2023-03-01T05:37:39;10.98;;;5.25;;
54454;SDS011;40364;52.270;10.546;2023-03-01T05:40:07;13.73;;;6.20;;
54454;SDS011;40364;52.270;10.546;2023-03-01T05:42:40;13.05;;;5.55;;
54454;SDS011;40364;52.270;10.546;2023-03-01T05:45:07;12.65;;;4.82;;
54454;SDS011;40364;52.270;10.546;2023-03-01T05:47:34;16.33;;;6.00;;
54454;SDS011;40364;52.270;10.546;2023-03-01T05:50:01;10.65;;;5.22;;
54454;SDS011;40364;52.270;10.546;2023-03-01T05:52:27;13.40;;;5.43;;
54454;SDS011;40364;52.270;10.546;2023-03-01T05:54:55;13.75;;;6.35;;
54454;SDS011;40364;52.270;10.546;2023-03-01T05:57:21;10.90;;;5.78;;
54454;SDS011;40364;52.270;10.546;2023-03-01T05:59:48;11.00;;;5.80;;
54454;SDS011;40364;52.270;10.546;2023-03-01T06:02:14;12.98;;;6.32;;
54454;SDS011;40364;52.270;10.546;2023-03-01T06:04:40;10.38;;;5.50;;
54454;SDS011;40364;52.270;10.546;2023-03-01T06:07:07;19.42;;;5.97;;
54454;SDS011;40364;52.270;10.546;2023-03-01T06:09:33;11.57;;;5.53;;
54454;SDS011;40364;52.270;10.546;2023-03-01T06:12:01;16.08;;;5.38;;
54454;SDS011;40364;52.270;10.546;2023-03-01T06:14:28;10.38;;;5.63;;
54454;SDS011;40364;52.270;10.546;2023-03-01T06:16:54;12.52;;;6.07;;
54454;SDS011;40364;52.270;10.546;2023-03-01T06:19:20;11.80;;;5.50;;
54454;SDS011;40364;52.270;10.546;2023-03-01T06:21:47;10.55;;;5.65;;
54454;SDS011;40364;52.270;10.546;2023-03-01T06:24:13;17.33;;;5.95;;
54454;SDS011;40364;52.270;10.546;2023-03-01T06:26:40;12.23;;;5.53;;
54454;SDS011;40364;52.270;10.546;2023-03-01T06:29:08;16.10;;;5.53;;
54454;SDS011;40364;52.270;10.546;2023-03-01T06:31:34;9.13;;;5.43;;
54454;SDS011;40364;52.270;10.546;2023-03-01T06:34:01;11.98;;;5.45;;
54454;SDS011;40364;52.270;10.546;2023-03-01T06:36:27;13.88;;;5.50;;
54454;SDS011;40364;52.270;10.546;2023-03-01T06:38:54;14.27;;;5.35;;
54454;SDS011;40364;52.270;10.546;2023-03-01T06:41:20;14.20;;;5.80;;
54454;SDS011;40364;52.270;10.546;2023-03-01T06:43:46;12.32;;;4.72;;
54454;SDS011;40364;52.270;10.546;2023-03-01T06:46:14;9.82;;;5.30;;
54454;SDS011;40364;52.270;10.546;2023-03-01T06:48:41;11.68;;;5.78;;
54454;SDS011;40364;52.270;10.546;2023-03-01T06:51:07;19.30;;;6.45;;
54454;SDS011;40364;52.270;10.546;2023-03-01T06:53:33;15.60;;;6.22;;
54454;SDS011;40364;52.270;10.546;2023-03-01T06:56:00;12.43;;;6.57;;
54454;SDS011;40364;52.270;10.546;2023-03-01T06:58:26;11.57;;;5.60;;
54454;SDS011;40364;52.270;10.546;2023-03-01T07:00:53;12.82;;;5.88;;
54454;SDS011;40364;52.270;10.546;2023-03-01T07:03:21;11.05;;;5.05;;
54454;SDS011;40364;52.270;10.546;2023-03-01T07:05:48;10.43;;;5.40;;
54454;SDS011;40364;52.270;10.546;2023-03-01T07:08:14;13.48;;;5.38;;
54454;SDS011;40364;52.270;10.546;2023-03-01T07:10:41;11.02;;;5.07;;
54454;SDS011;40364;52.270;10.546;2023-03-01T07:13:07;10.88;;;4.90;;
54454;SDS011;40364;52.270;10.546;2023-03-01T07:15:34;9.95;;;5.57;;
54454;SDS011;40364;52.270;10.546;2023-03-01T07:18:00;8.80;;;4.45;;
54454;SDS011;40364;52.270;10.546;2023-03-01T07:20:28;11.60;;;4.72;;
54454;SDS011;40364;52.270;10.546;2023-03-01T07:22:55;11.48;;;5.68;;
54454;SDS011;40364;52.270;10.546;2023-03-01T07:25:23;16.27;;;6.03;;
54454;SDS011;40364;52.270;10.546;2023-03-01T07:27:50;12.77;;;6.05;;
54454;SDS011;40364;52.270;10.546;2023-03-01T07:30:17;24.33;;;8.02;;
54454;SDS011;40364;52.270;10.546;2023-03-01T07:32:43;14.07;;;6.53;;
54454;SDS011;40364;52.270;10.546;2023-03-01T07:35:10;15.85;;;6.88;;
54454;SDS011;40364;52.270;10.546;2023-03-01T07:37:38;20.05;;;6.65;;
54454;SDS011;40364;52.270;10.546;2023-03-01T07:40:05;22.83;;;7.47;;
54454;SDS011;40364;52.270;10.546;2023-03-01T07:42:32;15.68;;;7.25;;
54454;SDS011;40364;52.270;10.546;2023-03-01T07:44:58;10.23;;;5.63;;
54454;SDS011;40364;52.270;10.546;2023-03-01T07:47:25;15.27;;;6.43;;
54454;SDS011;40364;52.270;10.546;2023-03-01T07:49:51;14.98;;;6.80;;
54454;SDS011;40364;52.270;10.546;2023-03-01T07:52:18;13.98;;;5.63;;
54454;SDS011;40364;52.270;10.546;2023-03-01T07:54:45;10.68;;;6.03;;
54454;SDS011;40364;52.270;10.546;2023-03-01T07:57:12;13.38;;;5.95;;
54454;SDS011;40364;52.270;10.546;2023-03-01T07:59:38;12.52;;;5.95;;
54454;SDS011;40364;52.270;10.546;2023-03-01T08:02:05;11.52;;;6.03;;
54454;SDS011;40364;52.270;10.546;2023-03-01T08:04:31;15.32;;;6.53;;
54454;SDS011;40364;52.270;10.546;2023-03-01T08:06:58;15.00;;;6.07;;
54454;SDS011;40364;52.270;10.546;2023-03-01T08:09:24;10.80;;;5.70;;
54454;SDS011;40364;52.270;10.546;2023-03-01T08:11:52;15.02;;;6.05;;
54454;SDS011;40364;52.270;10.546;2023-03-01T08:14:19;10.70;;;6.28;;
54454;SDS011;40364;52.270;10.546;2023-03-01T08:16:48;13.05;;;5.85;;
54454;SDS011;40364;52.270;10.546;2023-03-01T08:19:14;11.50;;;6.30;;
54454;SDS011;40364;52.270;10.546;2023-03-01T08:21:41;13.80;;;6.07;;
54454;SDS011;40364;52.270;10.546;2023-03-01T08:24:07;10.02;;;5.00;;
54454;SDS011;40364;52.270;10.546;2023-03-01T08:26:36;13.23;;;6.30;;
54454;SDS011;40364;52.270;10.546;2023-03-01T08:29:04;15.05;;;5.38;;
54454;SDS011;40364;52.270;10.546;2023-03-01T08:31:31;9.75;;;5.22;;
54454;SDS011;40364;52.270;10.546;2023-03-01T08:33:59;10.05;;;5.43;;
54454;SDS011;40364;52.270;10.546;2023-03-01T08:36:26;10.18;;;4.95;;
54454;SDS011;40364;52.270;10.546;2023-03-01T08:38:53;7.88;;;4.22;;
54454;SDS011;40364;52.270;10.546;2023-03-01T08:41:19;10.48;;;4.63;;
54454;SDS011;40364;52.270;10.546;2023-03-01T08:43:46;9.68;;;4.25;;
54454;SDS011;40364;52.270;10.546;2023-03-01T08:46:14;11.55;;;4.72;;
54454;SDS011;40364;52.270;10.546;2023-03-01T08:48:40;9.57;;;5.22;;
54454;SDS011;40364;52.270;10.546;2023-03-01T08:51:08;13.45;;;4.95;;
54454;SDS011;40364;52.270;10.546;2023-03-01T08:53:35;9.32;;;4.10;;
54454;SDS011;40364;52.270;10.546;2023-03-01T08:56:01;9.82;;;4.75;;
54454;SDS011;40364;52.270;10.546;2023-03-01T08:58:28;9.20;;;4.43;;
54454;SDS011;40364;52.270;10.546;2023-03-01T09:00:55;8.18;;;3.85;;
54454;SDS011;40364;52.270;10.546;2023-03-01T09:03:23;13.10;;;4.60;;
54454;SDS011;40364;52.270;10.546;2023-03-01T09:05:49;7.50;;;3.90;;
54454;SDS011;40364;52.270;10.546;2023-03-01T09:08:16;8.77;;;4.15;;
54454;SDS011;40364;52.270;10.546;2023-03-01T09:10:42;9.05;;;3.78;;
54454;SDS011;40364;52.270;10.546;2023-03-01T09:13:09;9.88;;;4.75;;
54454;SDS011;40364;52.270;10.546;2023-03-01T09:15:36;10.00;;;4.43;;
54454;SDS011;40364;52.270;10.546;2023-03-01T09:18:03;6.80;;;3.95;;
54454;SDS011;40364;52.270;10.546;2023-03-01T09:20:31;12.13;;;4.10;;
54454;SDS011;40364;52.270;10.546;2023-03-01T09:22:57;6.82;;;3.65;;
54454;SDS011;40364;52.270;10.546;2023-03-01T09:25:24;8.65;;;4.20;;
54454;SDS011;40364;52.270;10.546;2023-03-01T09:27:51;6.95;;;4.00;;
54454;SDS011;40364;52.270;10.546;2023-03-01T09:30:17;9.32;;;4.25;;
54454;SDS011;40364;52.270;10.546;2023-03-01T09:32:44;8.90;;;4.10;;
54454;SDS011;40364;52.270;10.546;2023-03-01T09:35:10;9.95;;;4.25;;
54454;SDS011;40364;52.270;10.546;2023-03-01T09:37:38;9.32;;;4.10;;
54454;SDS011;40364;52.270;10.546;2023-03-01T09:40:09;8.27;;;3.22;;
54454;SDS011;40364;52.270;10.546;2023-03-01T09:42:45;8.25;;;3.63;;
54454;SDS011;40364;52.270;10.546;2023-03-01T09:45:14;8.30;;;4.25;;
54454;SDS011;40364;52.270;10.546;2023-03-01T09:47:45;12.73;;;3.90;;
54454;SDS011;40364;52.270;10.546;2023-03-01T09:50:12;7.65;;;3.42;;
54454;SDS011;40364;52.270;10.546;2023-03-01T09:52:41;5.57;;;3.20;;
54454;SDS011;40364;52.270;10.546;2023-03-01T09:55:09;9.20;;;3.38;;
54454;SDS011;40364;52.270;10.546;2023-03-01T09:57:36;10.15;;;3.20;;
54454;SDS011;40364;52.270;10.546;2023-03-01T10:00:14;8.15;;;3.25;;
54454;SDS011;40364;52.270;10.546;2023-03-01T10:02:44;6.57;;;3.35;;
54454;SDS011;40364;52.270;10.546;2023-03-01T10:05:18;7.15;;;3.20;;
54454;SDS011;40364;52.270;10.546;2023-03-01T10:07:51;9.00;;;3.63;;
54454;SDS011;40364;52.270;10.546;2023-03-01T10:10:23;6.78;;;2.95;;
54454;SDS011;40364;52.270;10.546;2023-03-01T10:12:52;4.32;;;2.58;;
54454;SDS011;40364;52.270;10.546;2023-03-01T10:15:19;11.23;;;3.50;;
54454;SDS011;40364;52.270;10.546;2023-03-01T10:17:48;8.32;;;3.55;;
54454;SDS011;40364;52.270;10.546;2023-03-01T10:20:18;5.93;;;3.22;;
54454;SDS011;40364;52.270;10.546;2023-03-01T10:22:45;7.22;;;3.38;;
54454;SDS011;40364;52.270;10.546;2023-03-01T10:25:17;7.60;;;3.92;;
54454;SDS011;40364;52.270;10.546;2023-03-01T10:27:44;7.43;;;3.55;;
54454;SDS011;40364;52.270;10.546;2023-03-01T10:30:13;6.93;;;3.25;;
54454;SDS011;40364;52.270;10.546;2023-03-01T10:32:41;6.28;;;3.25;;
54454;SDS011;40364;52.270;10.546;2023-03-01T10:35:17;7.57;;;3.20;;
54454;SDS011;40364;52.270;10.546;2023-03-01T10:37:56;6.13;;;2.70;;
54454;SDS011;40364;52.270;10.546;2023-03-01T10:40:24;6.57;;;3.40;;
54454;SDS011;40364;52.270;10.546;2023-03-01T10:42:51;8.43;;;3.53;;
54454;SDS011;40364;52.270;10.546;2023-03-01T10:45:25;9.65;;;3.55;;
54454;SDS011;40364;52.270;10.546;2023-03-01T10:48:02;7.13;;;3.72;;
54454;SDS011;40364;52.270;10.546;2023-03-01T10:50:29;10.90;;;3.50;;
54454;SDS011;40364;52.270;10.546;2023-03-01T10:52:56;6.50;;;3.42;;
54454;SDS011;40364;52.270;10.546;2023-03-01T10:55:26;6.05;;;3.15;;
54454;SDS011;40364;52.270;10.546;2023-03-01T10:58:06;7.93;;;3.35;;
54454;SDS011;40364;52.270;10.546;2023-03-01T11:00:32;7.40;;;3.40;;
54454;SDS011;40364;52.270;10.546;2023-03-01T11:03:03;8.90;;;3.67;;
54454;SDS011;40364;52.270;10.546;2023-03-01T11:05:35;10.48;;;3.70;;
54454;SDS011;40364;52.270;10.546;2023-03-01T11:08:03;7.35;;;3.83;;
54454;SDS011;40364;52.270;10.546;2023-03-01T11:10:31;9.38;;;4.15;;
54454;SDS011;40364;52.270;10.546;2023-03-01T11:13:08;6.82;;;3.53;;
54454;SDS011;40364;52.270;10.546;2023-03-01T11:15:34;5.88;;;3.17;;
54454;SDS011;40364;52.270;10.546;2023-03-01T11:18:02;6.10;;;3.15;;
54454;SDS011;40364;52.270;10.546;2023-03-01T11:20:29;5.65;;;2.88;;
54454;SDS011;40364;52.270;10.546;2023-03-01T11:22:57;7.68;;;3.38;;
54454;SDS011;40364;52.270;10.546;2023-03-01T11:25:26;8.60;;;3.50;;
54454;SDS011;40364;52.270;10.546;2023-03-01T11:27:54;7.45;;;3.88;;
54454;SDS011;40364;52.270;10.546;2023-03-01T11:30:23;5.55;;;3.53;;
54454;SDS011;40364;52.270;10.546;2023-03-01T11:32:52;5.30;;;3.30;;
54454;SDS011;40364;52.270;10.546;2023-03-01T11:35:20;4.95;;;3.00;;
54454;SDS011;40364;52.270;10.546;2023-03-01T11:37:51;6.22;;;3.10;;
54454;SDS011;40364;52.270;10.546;2023-03-01T11:40:22;5.72;;;2.83;;
54454;SDS011;40364;52.270;10.546;2023-03-01T11:42:53;5.50;;;3.63;;
54454;SDS011;40364;52.270;10.546;2023-03-01T11:45:24;7.45;;;3.90;;
54454;SDS011;40364;52.270;10.546;2023-03-01T11:47:55;8.25;;;3.50;;
54454;SDS011;40364;52.270;10.546;2023-03-01T11:50:29;8.13;;;2.97;;
54454;SDS011;40364;52.270;10.546;2023-03-01T11:52:59;7.10;;;3.17;;
54454;SDS011;40364;52.270;10.546;2023-03-01T11:55:30;4.95;;;2.90;;
54454;SDS011;40364;52.270;10.546;2023-03-01T11:58:12;8.55;;;3.17;;
54454;SDS011;40364;52.270;10.546;2023-03-01T12:03:30;6.75;;;3.30;;
54454;SDS011;40364;52.270;10.546;2023-03-01T12:06:11;6.22;;;2.90;;
54454;SDS011;40364;52.270;10.546;2023-03-01T12:08:40;5.55;;;3.25;;
54454;SDS011;40364;52.270;10.546;2023-03-01T12:11:11;7.22;;;3.42;;
54454;SDS011;40364;52.270;10.546;2023-03-01T12:13:47;5.68;;;3.15;;
54454;SDS011;40364;52.270;10.546;2023-03-01T12:16:20;5.47;;;3.28;;
54454;SDS011;40364;52.270;10.546;2023-03-01T12:18:56;4.78;;;3.38;;
54454;SDS011;40364;52.270;10.546;2023-03-01T12:21:29;6.50;;;3.40;;
54454;SDS011;40364;52.270;10.546;2023-03-01T12:24:15;5.32;;;3.08;;
54454;SDS011;40364;52.270;10.546;2023-03-01T12:26:48;4.95;;;3.03;;
54454;SDS011;40364;52.270;10.546;2023-03-01T12:29:22;6.47;;;3.00;;
54454;SDS011;40364;52.270;10.546;2023-03-01T12:34:39;7.45;;;2.88;;
54454;SDS011;40364;52.270;10.546;2023-03-01T12:37:15;5.72;;;3.03;;
54454;SDS011;40364;52.270;10.546;2023-03-01T12:39:47;5.40;;;3.30;;
54454;SDS011;40364;52.270;10.546;2023-03-01T12:42:18;4.55;;;3.10;;
54454;SDS011;40364;52.270;10.546;2023-03-01T12:44:54;5.82;;;3.22;;
54454;SDS011;40364;52.270;10.546;2023-03-01T12:47:31;3.53;;;2.47;;
54454;SDS011;40364;52.270;10.546;2023-03-01T12:50:10;6.72;;;2.85;;
54454;SDS011;40364;52.270;10.546;2023-03-01T12:52:38;5.82;;;3.05;;
54454;SDS011;40364;52.270;10.546;2023-03-01T12:55:08;7.75;;;3.47;;
54454;SDS011;40364;52.270;10.546;2023-03-01T12:57:45;5.68;;;3.00;;
54454;SDS011;40364;52.270;10.546;2023-03-01T13:00:22;5.60;;;3.38;;
54454;SDS011;40364;52.270;10.546;2023-03-01T13:02:52;8.02;;;3.45;;
54454;SDS011;40364;52.270;10.546;2023-03-01T13:05:26;6.90;;;2.75;;
54454;SDS011;40364;52.270;10.546;2023-03-01T13:07:57;7.70;;;3.90;;
54454;SDS011;40364;52.270;10.546;2023-03-01T13:10:26;6.05;;;3.28;;
54454;SDS011;40364;52.270;10.546;2023-03-01T13:13:01;6.15;;;2.75;;
54454;SDS011;40364;52.270;10.546;2023-03-01T13:15:29;5.77;;;3.30;;
54454;SDS011;40364;52.270;10.546;2023-03-01T13:17:56;5.20;;;2.90;;
54454;SDS011;40364;52.270;10.546;2023-03-01T13:20:26;6.63;;;3.13;;
54454;SDS011;40364;52.270;10.546;2023-03-01T13:23:00;4.68;;;3.38;;
54454;SDS011;40364;52.270;10.546;2023-03-01T13:25:27;7.93;;;3.65;;
54454;SDS011;40364;52.270;10.546;2023-03-01T13:27:54;6.32;;;3.30;;
54454;SDS011;40364;52.270;10.546;2023-03-01T13:30:41;5.57;;;3.10;;
54454;SDS011;40364;52.270;10.546;2023-03-01T13:35:55;8.00;;;3.33;;
54454;SDS011;40364;52.270;10.546;2023-03-01T13:38:37;5.68;;;3.58;;
54454;SDS011;40364;52.270;10.546;2023-03-01T13:41:04;4.72;;;2.88;;
54454;SDS011;40364;52.270;10.546;2023-03-01T13:43:31;4.95;;;3.15;;
54454;SDS011;40364;52.270;10.546;2023-03-01T13:45:58;5.82;;;3.30;;
54454;SDS011;40364;52.270;10.546;2023-03-01T13:48:26;4.97;;;2.90;;
54454;SDS011;40364;52.270;10.546;2023-03-01T13:50:54;4.38;;;2.95;;
54454;SDS011;40364;52.270;10.546;2023-03-01T13:53:22;7.57;;;3.22;;
54454;SDS011;40364;52.270;10.546;2023-03-01T13:55:50;5.07;;;2.72;;
54454;SDS011;40364;52.270;10.546;2023-03-01T13:58:21;4.55;;;2.85;;
54454;SDS011;40364;52.270;10.546;2023-03-01T14:00:54;4.90;;;2.67;;
54454;SDS011;40364;52.270;10.546;2023-03-01T14:03:21;5.20;;;2.92;;
54454;SDS011;40364;52.270;10.546;2023-03-01T14:05:59;4.75;;;3.17;;
54454;SDS011;40364;52.270;10.546;2023-03-01T14:08:26;5.72;;;2.92;;
54454;SDS011;40364;52.270;10.546;2023-03-01T14:10:54;6.20;;;3.15;;
54454;SDS011;40364;52.270;10.546;2023-03-01T14:13:28;7.28;;;3.08;;
54454;SDS011;40364;52.270;10.546;2023-03-01T14:16:04;4.53;;;2.80;;
54454;SDS011;40364;52.270;10.546;2023-03-01T14:18:33;4.03;;;2.58;;
54454;SDS011;40364;52.270;10.546;2023-03-01T14:21:08;5.25;;;2.88;;
54454;SDS011;40364;52.270;10.546;2023-03-01T14:23:34;4.85;;;2.85;;
54454;SDS011;40364;52.270;10.546;2023-03-01T14:26:04;5.32;;;3.03;;
54454;SDS011;40364;52.270;10.546;2023-03-01T14:28:31;4.65;;;2.72;;
54454;SDS011;40364;52.270;10.546;2023-03-01T14:30:59;6.20;;;3.05;;
54454;SDS011;40364;52.270;10.546;2023-03-01T14:33:28;5.07;;;2.78;;
54454;SDS011;40364;52.270;10.546;2023-03-01T14:35:56;6.35;;;2.80;;
54454;SDS011;40364;52.270;10.546;2023-03-01T14:38:28;5.00;;;2.80;;
54454;SDS011;40364;52.270;10.546;2023-03-01T14:40:56;3.92;;;2.80;;
54454;SDS011;40364;52.270;10.546;2023-03-01T14:43:23;3.05;;;2.35;;
54454;SDS011;40364;52.270;10.546;2023-03-01T14:45:50;5.97;;;2.60;;
54454;SDS011;40364;52.270;10.546;2023-03-01T14:48:17;5.28;;;2.30;;